createdAt,value
2018-07-21T00:01:05.722Z,7.43
2018-07-21T00:03:33.980Z,7.07
2018-07-21T00:06:02.413Z,8.73
2018-07-21T00:08:30.643Z,8.03
2018-07-21T00:10:58.748Z,7.90
2018-07-21T00:13:26.717Z,7.50
2018-07-21T00:15:54.685Z,8.23
2018-07-21T00:18:22.644Z,6.47
2018-07-21T00:20:50.708Z,6.33
2018-07-21T00:23:18.746Z,7.60
2018-07-21T00:25:46.673Z,6.83
2018-07-21T00:28:14.630Z,8.53
2018-07-21T00:30:42.545Z,6.40
2018-07-21T00:33:10.486Z,7.57
2018-07-21T00:35:38.453Z,6.27
2018-07-21T00:38:06.531Z,6.77
2018-07-21T00:40:34.629Z,6.20
2018-07-21T00:43:02.875Z,5.90
2018-07-21T00:45:31.136Z,6.80
2018-07-21T00:47:59.352Z,6.23
2018-07-21T00:50:27.332Z,5.60
2018-07-21T00:52:55.310Z,6.03
2018-07-21T00:55:23.299Z,5.70
2018-07-21T00:57:51.394Z,6.50
2018-07-21T01:00:19.394Z,6.43
2018-07-21T01:02:47.432Z,6.10
2018-07-21T01:05:15.645Z,5.63
2018-07-21T01:07:43.588Z,6.47
2018-07-21T01:10:11.564Z,5.53
2018-07-21T01:12:39.603Z,6.30
2018-07-21T01:15:08.788Z,6.60
2018-07-21T01:17:36.809Z,6.00
2018-07-21T01:20:04.995Z,5.57
2018-07-21T01:22:33.034Z,5.33
2018-07-21T01:25:01.175Z,5.80
2018-07-21T01:27:29.642Z,6.30
2018-07-21T01:29:57.608Z,5.77
2018-07-21T01:32:25.548Z,6.63
2018-07-21T01:34:53.582Z,6.73
2018-07-21T01:37:21.588Z,7.30
2018-07-21T01:39:49.687Z,6.70
2018-07-21T01:42:17.596Z,6.17
2018-07-21T01:44:45.537Z,6.20
2018-07-21T01:47:13.489Z,6.23
2018-07-21T01:49:41.470Z,5.63
2018-07-21T01:52:09.420Z,5.63
2018-07-21T01:54:37.451Z,5.57
2018-07-21T01:57:05.642Z,5.10
2018-07-21T01:59:33.718Z,6.00
2018-07-21T02:02:01.861Z,5.50
2018-07-21T02:04:30.072Z,5.87
2018-07-21T02:06:58.145Z,5.00
2018-07-21T02:09:26.053Z,5.87
2018-07-21T02:11:54.122Z,4.50
2018-07-21T02:14:22.472Z,4.93
2018-07-21T02:16:50.504Z,4.57
2018-07-21T02:19:18.436Z,4.37
2018-07-21T02:21:46.580Z,4.27
2018-07-21T02:24:14.468Z,6.00
2018-07-21T02:26:42.373Z,4.33
2018-07-21T02:29:10.310Z,4.30
2018-07-21T02:31:38.260Z,4.53
2018-07-21T02:34:06.392Z,3.93
2018-07-21T02:36:34.481Z,4.03
2018-07-21T02:39:03.122Z,4.97
2018-07-21T02:41:31.554Z,4.50
2018-07-21T02:43:59.982Z,4.13
2018-07-21T02:46:28.040Z,5.50
2018-07-21T02:48:56.122Z,5.53
2018-07-21T02:51:24.126Z,4.23
2018-07-21T02:53:52.212Z,4.83
2018-07-21T02:56:20.236Z,5.10
2018-07-21T02:58:48.254Z,4.77
2018-07-21T03:01:16.239Z,4.97
2018-07-21T03:03:44.128Z,4.83
2018-07-21T03:06:12.061Z,5.40
2018-07-21T03:08:39.968Z,5.00
2018-07-21T03:11:07.984Z,5.40
2018-07-21T03:13:36.185Z,5.83
2018-07-21T03:16:04.387Z,5.13
2018-07-21T03:18:32.642Z,5.57
2018-07-21T03:21:00.916Z,6.07
2018-07-21T03:23:28.996Z,5.83
2018-07-21T03:25:57.283Z,5.23
2018-07-21T03:28:25.197Z,5.93
2018-07-21T03:30:53.377Z,5.20
2018-07-21T03:33:21.455Z,4.90
2018-07-21T03:35:49.484Z,6.40
2018-07-21T03:38:17.650Z,5.37
2018-07-21T03:40:45.697Z,5.90
2018-07-21T03:43:13.625Z,5.30
2018-07-21T03:45:41.639Z,5.53
2018-07-21T03:48:10.463Z,6.17
2018-07-21T03:50:38.417Z,5.00
2018-07-21T03:53:06.481Z,5.50
2018-07-21T03:55:34.610Z,6.00
2018-07-21T03:58:02.834Z,5.97
2018-07-21T04:00:31.355Z,6.37
2018-07-21T04:02:59.815Z,6.60
2018-07-21T04:05:27.749Z,5.77
2018-07-21T04:07:55.704Z,6.60
2018-07-21T04:10:23.920Z,7.30
2018-07-21T04:12:52.021Z,6.63
2018-07-21T04:15:20.162Z,5.73
2018-07-21T04:17:48.190Z,6.73
2018-07-21T04:20:16.125Z,6.43
2018-07-21T04:22:44.037Z,7.23
2018-07-21T04:25:11.977Z,6.57
2018-07-21T04:27:39.899Z,5.70
2018-07-21T04:30:07.945Z,6.13
2018-07-21T04:32:36.037Z,6.67
2018-07-21T04:35:04.261Z,6.40
2018-07-21T04:37:32.500Z,6.20
2018-07-21T04:40:00.715Z,8.17
2018-07-21T04:42:29.128Z,7.30
2018-07-21T04:44:57.071Z,7.53
2018-07-21T04:47:25.107Z,7.63
2018-07-21T04:49:53.104Z,6.77
2018-07-21T04:52:21.154Z,6.60
2018-07-21T04:54:49.131Z,6.73
2018-07-21T04:57:17.132Z,6.73
2018-07-21T04:59:45.037Z,7.93
2018-07-21T05:02:12.995Z,8.00
2018-07-21T05:04:40.902Z,8.00
2018-07-21T05:07:08.828Z,11.07
2018-07-21T05:09:36.974Z,8.27
2018-07-21T05:12:05.165Z,8.23
2018-07-21T05:14:33.523Z,9.33
2018-07-21T05:17:02.051Z,10.00
2018-07-21T05:19:30.507Z,9.43
2018-07-21T05:21:58.722Z,8.30
2018-07-21T05:24:26.663Z,10.67
2018-07-21T05:26:54.729Z,10.30
2018-07-21T05:29:22.875Z,9.77
2018-07-21T05:31:50.977Z,10.23
2018-07-21T05:34:18.917Z,10.27
2018-07-21T05:36:47.324Z,10.60
2018-07-21T05:39:15.452Z,12.90
2018-07-21T05:41:43.381Z,11.07
2018-07-21T05:44:11.366Z,11.33
2018-07-21T05:46:39.284Z,10.93
2018-07-21T05:49:07.566Z,10.87
2018-07-21T05:51:35.635Z,10.40
2018-07-21T05:54:03.855Z,11.27
2018-07-21T05:56:32.254Z,10.23
2018-07-21T05:59:00.797Z,12.47
2018-07-21T06:01:28.995Z,11.10
2018-07-21T06:03:56.923Z,8.63
2018-07-21T06:06:24.896Z,8.27
2018-07-21T06:08:53.017Z,8.93
2018-07-21T06:11:21.178Z,7.73
2018-07-21T06:13:49.133Z,7.27
2018-07-21T06:16:17.135Z,8.73
2018-07-21T06:18:45.139Z,7.73
2018-07-21T06:21:12.990Z,8.10
2018-07-21T06:23:40.932Z,8.37
2018-07-21T06:26:08.992Z,9.63
2018-07-21T06:28:37.181Z,10.03
2018-07-21T06:31:05.384Z,9.73
2018-07-21T06:33:33.795Z,8.37
2018-07-21T06:36:02.157Z,8.27
2018-07-21T06:38:30.645Z,9.57
2018-07-21T06:40:58.759Z,9.10
2018-07-21T06:43:26.683Z,8.70
2018-07-21T06:45:54.646Z,9.17
2018-07-21T06:48:22.816Z,8.97
2018-07-21T06:50:50.901Z,8.73
2018-07-21T06:53:18.949Z,8.47
2018-07-21T06:55:46.928Z,6.90
2018-07-21T06:58:14.852Z,9.10
2018-07-21T07:00:42.775Z,8.47
2018-07-21T07:03:10.720Z,7.53
2018-07-21T07:05:38.751Z,7.10
2018-07-21T07:08:06.902Z,7.17
2018-07-21T07:10:35.001Z,7.20
2018-07-21T07:13:03.330Z,7.37
2018-07-21T07:15:31.579Z,7.07
2018-07-21T07:17:59.734Z,6.80
2018-07-21T07:20:28.194Z,6.93
2018-07-21T07:22:56.262Z,6.03
2018-07-21T07:25:24.347Z,7.33
2018-07-21T07:27:52.406Z,7.07
2018-07-21T07:30:20.373Z,6.40
2018-07-21T07:32:48.335Z,6.00
2018-07-21T07:35:16.340Z,5.97
2018-07-21T07:37:44.276Z,5.20
2018-07-21T07:40:12.246Z,5.03
2018-07-21T07:42:40.187Z,6.73
2018-07-21T07:45:08.198Z,5.00
2018-07-21T07:47:36.256Z,6.17
2018-07-21T07:50:04.818Z,7.90
2018-07-21T07:52:33.397Z,5.80
2018-07-21T07:55:01.719Z,4.37
2018-07-21T07:57:30.066Z,4.47
2018-07-21T07:59:59.848Z,4.00
2018-07-21T08:02:27.821Z,5.30
2018-07-21T08:04:55.758Z,3.87
2018-07-21T08:07:23.839Z,3.70
2018-07-21T08:09:51.835Z,3.37
2018-07-21T08:12:20.070Z,3.53
2018-07-21T08:14:47.981Z,3.50
2018-07-21T08:17:16.247Z,2.67
2018-07-21T08:19:44.202Z,3.10
2018-07-21T08:22:12.534Z,2.70
2018-07-21T08:24:41.517Z,3.13
2018-07-21T08:27:09.465Z,3.00
2018-07-21T08:29:37.597Z,2.70
2018-07-21T08:32:05.773Z,2.90
2018-07-21T08:34:34.254Z,3.70
2018-07-21T08:37:02.667Z,3.00
2018-07-21T08:39:30.981Z,4.07
2018-07-21T08:41:59.323Z,3.07
2018-07-21T08:44:27.426Z,3.40
2018-07-21T08:46:56.168Z,2.90
2018-07-21T08:49:24.732Z,4.00
2018-07-21T08:51:52.764Z,3.70
2018-07-21T08:54:20.709Z,3.40
2018-07-21T08:56:48.633Z,3.60
2018-07-21T08:59:16.589Z,3.70
2018-07-21T09:01:44.528Z,4.47
2018-07-21T09:04:12.991Z,4.83
2018-07-21T09:06:42.237Z,5.37
2018-07-21T09:09:11.546Z,4.27
2018-07-21T09:11:40.381Z,4.80
2018-07-21T09:14:08.575Z,4.00
2018-07-21T09:16:36.934Z,3.70
2018-07-21T09:19:05.606Z,4.20
2018-07-21T09:21:34.051Z,5.30
2018-07-21T09:24:02.966Z,6.27
2018-07-21T09:26:37.257Z,6.03
2018-07-21T09:29:06.037Z,5.83
2018-07-21T09:31:34.206Z,4.67
2018-07-21T09:34:03.973Z,6.27
2018-07-21T09:36:32.929Z,7.90
2018-07-21T09:39:01.212Z,7.23
2018-07-21T09:41:29.701Z,4.57
2018-07-21T09:44:02.978Z,6.30
2018-07-21T09:46:31.845Z,4.93
2018-07-21T09:49:00.870Z,4.80
2018-07-21T09:54:07.443Z,4.40
2018-07-21T09:56:46.154Z,4.83
2018-07-21T09:59:19.629Z,4.70
2018-07-21T10:01:47.854Z,4.47
2018-07-21T10:04:16.272Z,4.80
2018-07-21T10:06:46.066Z,5.37
2018-07-21T10:09:14.222Z,4.80
2018-07-21T10:11:42.513Z,4.57
2018-07-21T10:14:10.710Z,4.63
2018-07-21T10:16:39.057Z,4.77
2018-07-21T10:19:07.616Z,5.90
2018-07-21T10:21:35.874Z,5.50
2018-07-21T10:24:09.654Z,5.00
2018-07-21T10:26:43.461Z,5.67
2018-07-21T10:29:12.619Z,5.80
2018-07-21T10:31:41.135Z,6.53
2018-07-21T10:34:10.972Z,5.23
2018-07-21T10:36:49.028Z,5.10
2018-07-21T10:39:17.114Z,5.10
2018-07-21T10:41:45.407Z,5.50
2018-07-21T10:44:13.583Z,6.47
2018-07-21T10:46:41.660Z,5.27
2018-07-21T10:49:09.947Z,6.10
2018-07-21T10:51:39.396Z,6.13
2018-07-21T10:54:08.319Z,4.73
2018-07-21T10:56:36.619Z,5.60
2018-07-21T10:59:04.816Z,4.73
2018-07-21T11:01:33.736Z,5.10
2018-07-21T11:04:02.307Z,4.40
2018-07-21T11:06:31.683Z,4.90
2018-07-21T11:09:02.313Z,5.23
2018-07-21T11:11:31.677Z,5.30
2018-07-21T11:14:00.696Z,5.00
2018-07-21T11:16:28.938Z,5.10
2018-07-21T11:18:57.903Z,5.30
2018-07-21T11:21:26.967Z,6.20
2018-07-21T11:26:40.607Z,5.37
2018-07-21T11:29:09.738Z,6.00
2018-07-21T11:31:38.226Z,6.17
2018-07-21T11:34:06.888Z,5.80
2018-07-21T11:36:38.270Z,5.20
2018-07-21T11:39:06.930Z,5.40
2018-07-21T11:41:35.627Z,4.80
2018-07-21T11:44:04.308Z,5.00
2018-07-21T11:46:32.794Z,5.40
2018-07-21T11:49:01.231Z,6.07
2018-07-21T11:51:30.439Z,5.20
2018-07-21T11:54:00.792Z,7.50
2018-07-21T11:56:32.186Z,6.97
2018-07-21T11:59:01.608Z,6.20
2018-07-21T12:01:31.607Z,7.37
2018-07-21T12:04:00.958Z,6.43
2018-07-21T12:06:29.567Z,5.57
2018-07-21T12:08:57.799Z,6.47
2018-07-21T12:11:27.085Z,5.23
2018-07-21T12:14:00.168Z,6.30
2018-07-21T12:16:29.336Z,6.13
2018-07-21T12:18:58.058Z,5.80
2018-07-21T12:21:26.367Z,6.47
2018-07-21T12:23:54.774Z,5.60
2018-07-21T12:26:23.004Z,4.50
2018-07-21T12:28:51.177Z,6.60
2018-07-21T12:31:21.117Z,5.67
2018-07-21T12:33:49.291Z,5.80
2018-07-21T12:36:17.485Z,4.30
2018-07-21T12:38:45.645Z,4.83
2018-07-21T12:41:13.900Z,5.33
2018-07-21T12:43:42.134Z,6.90
2018-07-21T12:46:10.509Z,4.70
2018-07-21T12:48:39.406Z,5.40
2018-07-21T12:51:07.593Z,5.53
2018-07-21T12:53:36.128Z,5.00
2018-07-21T12:56:04.605Z,4.13
2018-07-21T12:58:33.858Z,5.73
2018-07-21T13:01:04.154Z,5.40
2018-07-21T13:03:32.773Z,4.77
2018-07-21T13:06:01.804Z,5.70
2018-07-21T13:08:30.648Z,5.60
2018-07-21T13:10:59.219Z,5.07
2018-07-21T13:13:27.618Z,4.90
2018-07-21T13:15:55.815Z,5.27
2018-07-21T13:18:24.140Z,5.30
2018-07-21T13:20:53.589Z,6.87
2018-07-21T13:23:21.708Z,5.10
2018-07-21T13:25:52.541Z,5.90
2018-07-21T13:28:20.716Z,5.13
2018-07-21T13:30:52.063Z,5.60
2018-07-21T13:33:20.185Z,6.53
2018-07-21T13:35:52.015Z,6.27
2018-07-21T13:38:20.342Z,4.97
2018-07-21T13:40:51.445Z,6.20
2018-07-21T13:43:22.430Z,5.87
2018-07-21T13:45:50.788Z,5.43
2018-07-21T13:48:19.954Z,6.00
2018-07-21T13:50:53.216Z,5.67
2018-07-21T13:53:21.332Z,5.53
2018-07-21T13:55:49.436Z,4.90
2018-07-21T13:58:19.253Z,5.10
2018-07-21T14:00:48.713Z,6.30
2018-07-21T14:03:17.837Z,6.60
2018-07-21T14:05:46.389Z,6.57
2018-07-21T14:08:14.381Z,6.60
2018-07-21T14:10:42.309Z,6.67
2018-07-21T14:13:10.256Z,7.03
2018-07-21T14:15:38.624Z,6.97
2018-07-21T14:18:08.083Z,7.30
2018-07-21T14:20:36.214Z,7.33
2018-07-21T14:23:04.468Z,8.03
2018-07-21T14:25:32.743Z,6.57
2018-07-21T14:28:01.236Z,7.77
2018-07-21T14:30:29.355Z,6.57
2018-07-21T14:32:57.467Z,7.20
2018-07-21T14:35:25.370Z,6.10
2018-07-21T14:37:54.561Z,5.50
2018-07-21T14:40:23.003Z,4.97
2018-07-21T14:42:51.947Z,6.27
2018-07-21T14:45:20.515Z,6.50
2018-07-21T14:47:49.286Z,5.80
2018-07-21T14:50:18.346Z,6.40
2018-07-21T14:52:47.047Z,6.10
2018-07-21T14:55:15.325Z,6.00
2018-07-21T14:57:56.763Z,7.17
2018-07-21T15:00:26.050Z,5.53
2018-07-21T15:02:54.634Z,6.53
2018-07-21T15:05:23.139Z,6.70
2018-07-21T15:07:51.705Z,5.90
2018-07-21T15:10:20.170Z,5.97
2018-07-21T15:12:48.377Z,6.60
2018-07-21T15:15:16.733Z,6.40
2018-07-21T15:17:44.789Z,5.90
2018-07-21T15:20:12.934Z,6.40
2018-07-21T15:22:41.001Z,5.60
2018-07-21T15:25:09.549Z,5.07
2018-07-21T15:27:37.885Z,6.10
2018-07-21T15:30:06.398Z,5.70
2018-07-21T15:32:35.785Z,6.10
2018-07-21T15:35:03.967Z,5.77
2018-07-21T15:37:33.573Z,6.00
2018-07-21T15:40:02.008Z,6.57
2018-07-21T15:42:30.954Z,7.47
2018-07-21T15:44:59.555Z,7.40
2018-07-21T15:47:27.850Z,7.30
2018-07-21T15:49:55.951Z,6.80
2018-07-21T15:52:24.403Z,6.40
2018-07-21T15:54:52.596Z,6.50
2018-07-21T15:57:21.079Z,7.50
2018-07-21T15:59:49.414Z,7.47
2018-07-21T16:02:17.434Z,6.83
2018-07-21T16:04:45.924Z,7.00
2018-07-21T16:07:15.116Z,6.20
2018-07-21T16:09:43.707Z,6.10
2018-07-21T16:12:11.879Z,6.10
2018-07-21T16:14:40.523Z,6.37
2018-07-21T16:17:08.739Z,5.90
2018-07-21T16:19:37.756Z,6.73
2018-07-21T16:22:06.124Z,7.20
2018-07-21T16:24:34.793Z,7.13
2018-07-21T16:27:03.249Z,4.43
2018-07-21T16:29:32.256Z,5.17
2018-07-21T16:32:00.715Z,5.33
2018-07-21T16:34:29.300Z,4.80
2018-07-21T16:36:59.470Z,5.73
2018-07-21T16:39:28.197Z,5.30
2018-07-21T16:41:57.649Z,6.37
2018-07-21T16:44:25.785Z,5.10
2018-07-21T16:46:54.028Z,5.03
2018-07-21T16:49:22.116Z,4.80
2018-07-21T16:51:52.501Z,5.90
2018-07-21T16:54:21.805Z,5.50
2018-07-21T16:56:51.255Z,4.60
2018-07-21T16:59:20.189Z,5.03
2018-07-21T17:01:48.800Z,5.43
2018-07-21T17:04:22.054Z,4.27
2018-07-21T17:06:51.238Z,3.90
2018-07-21T17:09:25.850Z,4.27
2018-07-21T17:11:54.150Z,4.57
2018-07-21T17:14:22.492Z,4.20
2018-07-21T17:16:54.905Z,5.40
2018-07-21T17:19:23.523Z,5.23
2018-07-21T17:21:51.745Z,4.60
2018-07-21T17:24:21.269Z,5.07
2018-07-21T17:26:49.544Z,4.83
2018-07-21T17:31:51.619Z,5.20
2018-07-21T17:34:20.483Z,5.47
2018-07-21T17:36:48.723Z,5.30
2018-07-21T17:39:18.562Z,5.77
2018-07-21T17:41:47.027Z,6.13
2018-07-21T17:44:15.528Z,5.83
2018-07-21T17:46:44.073Z,7.30
2018-07-21T17:49:12.570Z,6.43
2018-07-21T17:51:40.822Z,8.80
2018-07-21T17:54:09.139Z,7.13
2018-07-21T17:56:39.896Z,7.80
2018-07-21T17:59:08.395Z,8.63
2018-07-21T18:01:36.639Z,8.17
2018-07-21T18:04:04.996Z,8.43
2018-07-21T18:06:33.332Z,9.20
2018-07-21T18:09:05.986Z,9.43
2018-07-21T18:11:34.690Z,9.07
2018-07-21T18:14:03.411Z,7.43
2018-07-21T18:16:31.936Z,8.00
2018-07-21T18:19:00.826Z,9.63
2018-07-21T18:21:33.553Z,8.03
2018-07-21T18:24:03.099Z,8.63
2018-07-21T18:26:31.899Z,9.20
2018-07-21T18:29:01.111Z,7.57
2018-07-21T18:31:29.297Z,8.43
2018-07-21T18:33:58.462Z,8.43
2018-07-21T18:36:27.388Z,8.20
2018-07-21T18:38:55.825Z,8.10
2018-07-21T18:41:23.838Z,7.03
2018-07-21T18:43:52.168Z,5.63
2018-07-21T18:46:20.156Z,5.37
2018-07-21T18:48:48.575Z,4.47
2018-07-21T18:51:16.756Z,3.77
2018-07-21T18:53:44.925Z,4.67
2018-07-21T18:56:13.205Z,4.93
2018-07-21T18:58:41.840Z,4.10
2018-07-21T19:01:10.061Z,3.80
2018-07-21T19:03:39.406Z,3.30
2018-07-21T19:06:09.469Z,4.30
2018-07-21T19:11:21.279Z,4.20
2018-07-21T19:13:49.488Z,4.10
2018-07-21T19:16:23.862Z,5.47
2018-07-21T19:18:57.605Z,3.73
2018-07-21T19:21:26.590Z,3.80
2018-07-21T19:23:54.712Z,5.43
2018-07-21T19:26:29.456Z,4.90
2018-07-21T19:28:57.497Z,4.60
2018-07-21T19:31:26.654Z,5.53
2018-07-21T19:33:55.157Z,5.50
2018-07-21T19:36:24.488Z,4.80
2018-07-21T19:38:52.649Z,5.90
2018-07-21T19:41:26.284Z,5.47
2018-07-21T19:43:54.249Z,6.63
2018-07-21T19:46:22.289Z,5.90
2018-07-21T19:48:50.521Z,5.47
2018-07-21T19:51:30.882Z,5.90
2018-07-21T19:53:59.333Z,5.90
2018-07-21T19:56:29.111Z,5.40
2018-07-21T19:58:57.207Z,5.30
2018-07-21T20:01:30.432Z,5.43
2018-07-21T20:03:58.808Z,4.87
2018-07-21T20:06:31.591Z,5.63
2018-07-21T20:09:00.576Z,5.70
2018-07-21T20:11:29.141Z,5.80
2018-07-21T20:13:57.418Z,6.50
2018-07-21T20:16:30.221Z,7.40
2018-07-21T20:18:58.532Z,6.30
2018-07-21T20:21:26.751Z,7.10
2018-07-21T20:23:55.451Z,8.57
2018-07-21T20:26:23.615Z,8.57
2018-07-21T20:28:52.025Z,7.80
2018-07-21T20:31:20.670Z,9.47
2018-07-21T20:33:48.701Z,8.53
2018-07-21T20:36:16.714Z,8.77
2018-07-21T20:38:45.105Z,8.63
2018-07-21T20:41:13.153Z,9.00
2018-07-21T20:43:41.972Z,8.47
2018-07-21T20:46:10.546Z,9.27
2018-07-21T20:48:38.576Z,8.23
2018-07-21T20:51:06.633Z,9.43
2018-07-21T20:53:34.805Z,9.40
2018-07-21T20:56:02.964Z,10.13
2018-07-21T20:58:31.070Z,8.97
2018-07-21T21:00:59.120Z,9.97
2018-07-21T21:03:27.767Z,7.80
2018-07-21T21:05:55.720Z,8.37
2018-07-21T21:08:24.125Z,9.20
2018-07-21T21:10:52.212Z,9.17
2018-07-21T21:13:20.548Z,8.37
2018-07-21T21:15:48.801Z,8.10
2018-07-21T21:18:16.834Z,8.30
2018-07-21T21:20:44.862Z,8.90
2018-07-21T21:23:12.802Z,9.60
2018-07-21T21:25:40.968Z,9.00
2018-07-21T21:28:09.378Z,9.63
2018-07-21T21:30:37.665Z,10.53
2018-07-21T21:33:05.773Z,10.53
2018-07-21T21:35:33.982Z,10.37
2018-07-21T21:38:02.079Z,10.57
2018-07-21T21:40:30.426Z,10.30
2018-07-21T21:42:58.443Z,11.83
2018-07-21T21:45:27.440Z,10.80
2018-07-21T21:47:55.468Z,12.80
2018-07-21T21:50:23.534Z,12.10
2018-07-21T21:52:51.732Z,13.80
2018-07-21T21:55:19.762Z,13.60
2018-07-21T21:57:47.796Z,15.10
2018-07-21T22:00:15.828Z,15.80
2018-07-21T22:02:44.019Z,15.17
2018-07-21T22:05:12.889Z,17.30
2018-07-21T22:07:40.936Z,15.00
2018-07-21T22:10:09.034Z,16.43
2018-07-21T22:12:37.566Z,18.63
2018-07-21T22:15:23.854Z,19.77
2018-07-21T22:17:52.697Z,18.70
2018-07-21T22:20:21.213Z,19.80
2018-07-21T22:22:49.478Z,22.60
2018-07-21T22:25:17.584Z,21.23
2018-07-21T22:27:45.706Z,24.50
2018-07-21T22:30:16.898Z,24.90
2018-07-21T22:32:44.831Z,22.57
2018-07-21T22:35:12.785Z,24.40
2018-07-21T22:37:40.898Z,23.70
2018-07-21T22:40:08.862Z,24.13
2018-07-21T22:42:36.918Z,25.30
2018-07-21T22:45:05.025Z,25.33
2018-07-21T22:47:33.160Z,24.03
2018-07-21T22:50:01.228Z,23.80
2018-07-21T22:52:29.318Z,22.93
2018-07-21T22:54:57.245Z,25.20
2018-07-21T22:57:25.209Z,23.50
2018-07-21T22:59:53.226Z,23.80
2018-07-21T23:02:21.303Z,22.80
2018-07-21T23:04:49.279Z,24.50
2018-07-21T23:07:17.851Z,25.60
2018-07-21T23:09:45.879Z,26.10
2018-07-21T23:12:13.866Z,24.30
2018-07-21T23:14:41.860Z,23.97
2018-07-21T23:17:09.881Z,23.20
2018-07-21T23:19:37.907Z,23.33
2018-07-21T23:22:06.005Z,20.90
2018-07-21T23:24:34.179Z,21.80
2018-07-21T23:27:02.295Z,21.17
2018-07-21T23:29:30.536Z,22.83
2018-07-21T23:31:58.763Z,21.97
2018-07-21T23:34:26.801Z,18.90
2018-07-21T23:36:55.008Z,19.70
2018-07-21T23:39:23.000Z,19.33
2018-07-21T23:41:51.156Z,20.20
2018-07-21T23:44:19.207Z,19.60
2018-07-21T23:46:47.216Z,22.40
2018-07-21T23:49:18.859Z,20.90
2018-07-21T23:51:46.816Z,20.13
2018-07-21T23:54:14.913Z,20.37
2018-07-21T23:56:42.864Z,19.07
2018-07-21T23:59:11.595Z,19.30
